createdAt,value
2023-04-15T00:01:21.200Z,64.90
2023-04-15T00:03:53.844Z,64.90
2023-04-15T00:06:23.671Z,65.00
2023-04-15T00:08:52.892Z,65.00
2023-04-15T00:11:22.291Z,64.90
2023-04-15T00:13:51.601Z,64.90
2023-04-15T00:16:21.359Z,64.90
2023-04-15T00:18:51.841Z,64.70
2023-04-15T00:21:21.420Z,64.90
2023-04-15T00:23:53.812Z,64.70
2023-04-15T00:26:23.211Z,64.70
2023-04-15T00:28:53.053Z,64.80
2023-04-15T00:31:22.258Z,64.70
2023-04-15T00:33:52.628Z,64.70
2023-04-15T00:36:21.872Z,64.80
2023-04-15T00:38:52.848Z,64.70
2023-04-15T00:41:23.025Z,64.70
2023-04-15T00:43:52.173Z,64.80
2023-04-15T00:46:22.278Z,64.70
2023-04-15T00:48:52.913Z,64.70
2023-04-15T00:51:22.287Z,64.70
2023-04-15T00:53:52.187Z,64.60
2023-04-15T00:56:24.352Z,64.70
2023-04-15T00:58:53.383Z,64.80
2023-04-15T01:01:23.460Z,64.70
2023-04-15T01:03:54.415Z,64.70
2023-04-15T01:06:23.652Z,64.70
2023-04-15T01:08:53.114Z,64.60
2023-04-15T01:11:22.727Z,64.50
2023-04-15T01:13:53.060Z,64.80
2023-04-15T01:16:22.481Z,64.90
2023-04-15T01:18:53.099Z,64.70
2023-04-15T01:21:25.438Z,64.80
2023-04-15T01:23:56.918Z,64.70
2023-04-15T01:26:28.326Z,64.60
2023-04-15T01:28:57.728Z,64.70
2023-04-15T01:31:27.351Z,64.60
2023-04-15T01:33:56.946Z,64.70
2023-04-15T01:36:44.797Z,64.70
2023-04-15T01:39:14.171Z,64.90
2023-04-15T01:41:44.676Z,64.70
2023-04-15T01:44:15.189Z,64.90
2023-04-15T01:46:46.515Z,64.90
2023-04-15T01:49:16.949Z,64.90
2023-04-15T01:51:47.901Z,64.70
2023-04-15T01:54:18.487Z,64.70
2023-04-15T01:56:50.389Z,64.70
2023-04-15T01:59:21.000Z,64.70
2023-04-15T02:01:52.384Z,64.80
2023-04-15T02:04:23.646Z,64.90
2023-04-15T02:06:54.504Z,64.70
2023-04-15T02:09:25.717Z,64.80
2023-04-15T02:11:57.724Z,64.90
2023-04-15T02:14:28.249Z,64.90
2023-04-15T02:17:02.346Z,64.90
2023-04-15T02:19:32.849Z,65.00
2023-04-15T02:22:03.350Z,65.00
2023-04-15T02:24:33.894Z,64.90
2023-04-15T02:27:06.056Z,65.00
2023-04-15T02:29:36.616Z,65.20
2023-04-15T02:32:07.356Z,65.10
2023-04-15T02:34:41.320Z,65.20
2023-04-15T02:37:13.722Z,65.20
2023-04-15T02:39:44.293Z,65.40
2023-04-15T02:42:16.228Z,65.30
2023-04-15T02:44:46.590Z,65.40
2023-04-15T02:47:17.043Z,65.40
2023-04-15T02:49:47.427Z,65.50
2023-04-15T02:52:17.980Z,65.60
2023-04-15T02:54:48.299Z,65.80
2023-04-15T02:57:20.028Z,65.80
2023-04-15T02:59:50.623Z,65.90
2023-04-15T03:02:21.406Z,66.00
2023-04-15T03:04:51.960Z,66.10
2023-04-15T03:07:23.160Z,66.20
2023-04-15T03:09:54.001Z,66.40
2023-04-15T03:12:25.934Z,66.40
2023-04-15T03:15:02.008Z,66.40
2023-04-15T03:17:38.950Z,66.40
2023-04-15T03:20:10.476Z,66.40
2023-04-15T03:22:41.206Z,66.50
2023-04-15T03:25:12.586Z,66.40
2023-04-15T03:27:44.945Z,66.50
2023-04-15T03:30:17.140Z,66.40
2023-04-15T03:32:47.826Z,66.40
2023-04-15T03:35:18.818Z,66.50
2023-04-15T03:37:49.307Z,66.60
2023-04-15T03:40:19.977Z,66.70
2023-04-15T03:42:51.998Z,66.70
2023-04-15T03:45:22.524Z,66.80
2023-04-15T03:47:53.197Z,67.30
2023-04-15T03:50:23.964Z,67.70
2023-04-15T03:52:54.603Z,66.90
2023-04-15T03:55:25.547Z,66.90
2023-04-15T03:57:57.497Z,67.00
2023-04-15T04:00:28.216Z,67.10
2023-04-15T04:02:59.130Z,67.30
2023-04-15T04:05:30.039Z,67.50
2023-04-15T04:08:00.715Z,67.70
2023-04-15T04:10:31.828Z,67.70
2023-04-15T04:13:03.846Z,67.70
2023-04-15T04:15:34.353Z,67.90
2023-04-15T04:18:05.184Z,68.00
2023-04-15T04:20:35.709Z,68.00
2023-04-15T04:23:06.541Z,68.00
2023-04-15T04:25:37.707Z,68.10
2023-04-15T04:28:09.658Z,68.20
2023-04-15T04:30:40.536Z,68.40
2023-04-15T04:33:11.003Z,68.30
2023-04-15T04:35:41.363Z,68.50
2023-04-15T04:38:12.028Z,68.50
2023-04-15T04:40:42.407Z,68.60
2023-04-15T04:43:14.846Z,68.80
2023-04-15T04:45:45.843Z,68.90
2023-04-15T04:48:16.971Z,68.80
2023-04-15T04:50:48.059Z,68.80
2023-04-15T04:53:18.510Z,68.80
2023-04-15T04:55:49.197Z,69.00
2023-04-15T04:58:21.377Z,68.90
2023-04-15T05:00:52.413Z,69.10
2023-04-15T05:03:23.373Z,69.10
2023-04-15T05:05:53.697Z,69.00
2023-04-15T05:08:24.088Z,69.20
2023-04-15T05:10:54.622Z,69.20
2023-04-15T05:13:27.110Z,69.30
2023-04-15T05:15:57.743Z,69.20
2023-04-15T05:18:28.042Z,69.30
2023-04-15T05:20:58.785Z,69.40
2023-04-15T05:23:32.324Z,69.50
2023-04-15T05:26:02.834Z,69.60
2023-04-15T05:28:34.891Z,69.70
2023-04-15T05:31:05.536Z,69.80
2023-04-15T05:33:36.289Z,70.00
2023-04-15T05:36:07.389Z,70.00
2023-04-15T05:38:37.837Z,70.10
2023-04-15T05:41:08.496Z,70.10
2023-04-15T05:43:40.610Z,70.10
2023-04-15T05:46:11.486Z,70.10
2023-04-15T05:48:41.942Z,70.10
2023-04-15T05:51:12.430Z,70.10
2023-04-15T05:53:43.043Z,70.10
2023-04-15T05:56:13.443Z,70.10
2023-04-15T05:58:45.379Z,70.40
2023-04-15T06:01:16.165Z,70.40
2023-04-15T06:03:47.083Z,70.30
2023-04-15T06:06:17.626Z,70.30
2023-04-15T06:08:47.906Z,70.40
2023-04-15T06:11:18.468Z,70.40
2023-04-15T06:13:50.302Z,70.50
2023-04-15T06:16:20.913Z,70.50
2023-04-15T06:18:51.301Z,70.50
2023-04-15T06:21:21.778Z,70.50
2023-04-15T06:23:52.277Z,70.70
2023-04-15T06:26:22.888Z,70.70
2023-04-15T06:28:54.769Z,70.70
2023-04-15T06:31:25.624Z,70.80
2023-04-15T06:33:55.989Z,71.10
2023-04-15T06:36:26.382Z,71.10
2023-04-15T06:38:56.834Z,71.00
2023-04-15T06:41:27.035Z,71.00
2023-04-15T06:43:59.004Z,71.00
2023-04-15T06:46:29.464Z,71.10
2023-04-15T06:48:59.759Z,71.00
2023-04-15T06:51:30.285Z,71.00
2023-04-15T06:54:00.625Z,71.20
2023-04-15T06:56:31.061Z,71.40
2023-04-15T06:59:02.848Z,71.40
2023-04-15T07:01:33.427Z,71.20
2023-04-15T07:04:04.015Z,71.30
2023-04-15T07:06:35.515Z,71.40
2023-04-15T07:09:06.184Z,71.20
2023-04-15T07:11:36.731Z,71.50
2023-04-15T07:14:09.072Z,71.30
2023-04-15T07:16:39.669Z,71.40
2023-04-15T07:19:10.178Z,71.10
2023-04-15T07:21:41.897Z,71.00
2023-04-15T07:24:12.878Z,71.10
2023-04-15T07:26:43.560Z,71.10
2023-04-15T07:29:15.832Z,70.90
2023-04-15T07:31:46.537Z,70.80
2023-04-15T07:34:17.566Z,70.70
2023-04-15T07:36:50.507Z,70.60
2023-04-15T07:39:21.131Z,70.50
2023-04-15T07:41:51.938Z,70.60
2023-04-15T07:44:23.935Z,70.50
2023-04-15T07:46:54.661Z,70.50
2023-04-15T07:49:25.133Z,70.50
2023-04-15T07:51:57.690Z,70.40
2023-04-15T07:54:28.469Z,70.50
2023-04-15T07:56:59.030Z,70.70
2023-04-15T07:59:33.380Z,70.50
2023-04-15T08:02:04.356Z,70.70
2023-04-15T08:04:34.911Z,70.40
2023-04-15T08:07:06.083Z,70.50
2023-04-15T08:09:37.101Z,70.50
2023-04-15T08:12:09.410Z,70.60
2023-04-15T08:14:41.663Z,70.90
2023-04-15T08:17:12.031Z,70.80
2023-04-15T08:19:42.945Z,70.50
2023-04-15T08:22:17.392Z,70.60
2023-04-15T08:24:49.286Z,70.60
2023-04-15T08:27:19.587Z,70.60
2023-04-15T08:29:51.450Z,70.50
2023-04-15T08:32:22.562Z,70.40
2023-04-15T08:34:53.703Z,70.50
2023-04-15T08:37:24.132Z,70.50
2023-04-15T08:39:54.438Z,70.80
2023-04-15T08:42:32.365Z,70.90
2023-04-15T08:45:06.334Z,71.00
2023-04-15T08:47:38.806Z,71.00
2023-04-15T08:50:11.811Z,71.20
2023-04-15T08:52:42.555Z,71.20
2023-04-15T08:55:14.605Z,71.20
2023-04-15T08:57:45.087Z,71.30
2023-04-15T09:00:18.515Z,71.40
2023-04-15T09:02:49.216Z,71.50
2023-04-15T09:05:21.573Z,71.60
2023-04-15T09:07:52.302Z,71.40
2023-04-15T09:10:23.314Z,71.40
2023-04-15T09:13:06.976Z,71.60
2023-04-15T09:15:39.897Z,71.50
2023-04-15T09:18:13.135Z,71.70
2023-04-15T09:20:44.115Z,71.50
2023-04-15T09:23:15.376Z,71.40
2023-04-15T09:25:46.695Z,71.40
2023-04-15T09:28:24.768Z,71.30
2023-04-15T09:30:58.807Z,71.30
2023-04-15T09:33:30.756Z,71.30
2023-04-15T09:36:03.589Z,71.20
2023-04-15T09:38:34.267Z,71.20
2023-04-15T09:41:05.213Z,71.20
2023-04-15T09:43:42.205Z,71.40
2023-04-15T09:46:14.601Z,71.40
2023-04-15T09:48:45.164Z,71.50
2023-04-15T09:51:16.124Z,71.60
2023-04-15T09:53:46.650Z,71.90
2023-04-15T09:56:17.318Z,71.90
2023-04-15T09:58:57.378Z,71.60
2023-04-15T10:01:30.000Z,71.70
2023-04-15T10:04:04.242Z,71.80
2023-04-15T10:06:35.878Z,71.80
2023-04-15T10:09:08.292Z,71.90
2023-04-15T10:11:38.914Z,71.90
2023-04-15T10:14:10.786Z,71.80
2023-04-15T10:16:46.083Z,71.90
2023-04-15T10:19:19.405Z,71.90
2023-04-15T10:21:51.208Z,71.90
2023-04-15T10:24:23.347Z,71.90
2023-04-15T10:26:54.600Z,71.80
2023-04-15T10:29:27.277Z,71.90
2023-04-15T10:32:01.391Z,71.90
2023-04-15T10:34:33.315Z,71.80
2023-04-15T10:37:04.697Z,71.50
2023-04-15T10:39:44.226Z,71.20
2023-04-15T10:42:16.536Z,71.40
2023-04-15T10:44:51.702Z,71.30
2023-04-15T10:47:23.961Z,71.40
2023-04-15T10:49:59.156Z,71.40
2023-04-15T10:52:30.392Z,71.30
2023-04-15T10:55:05.514Z,71.30
2023-04-15T10:57:38.920Z,71.30
2023-04-15T11:00:15.503Z,71.10
2023-04-15T11:02:49.794Z,71.00
2023-04-15T11:05:21.834Z,71.10
2023-04-15T11:07:54.941Z,71.10
2023-04-15T11:10:55.406Z,71.10
2023-04-15T11:13:28.379Z,71.50
2023-04-15T11:16:01.505Z,71.40
2023-04-15T11:18:35.597Z,71.00
2023-04-15T11:21:08.277Z,71.00
2023-04-15T11:23:40.678Z,70.70
2023-04-15T11:26:12.304Z,70.50
2023-04-15T11:28:44.819Z,70.60
2023-04-15T11:31:17.726Z,70.50
2023-04-15T11:33:56.583Z,70.70
2023-04-15T11:36:28.357Z,71.00
2023-04-15T11:39:00.225Z,71.00
2023-04-15T11:41:30.910Z,70.90
2023-04-15T11:44:01.474Z,70.80
2023-04-15T11:46:32.584Z,70.80
2023-04-15T11:49:04.988Z,70.60
2023-04-15T11:51:36.105Z,70.50
2023-04-15T11:54:05.541Z,70.50
2023-04-15T11:56:34.932Z,70.50
2023-04-15T11:59:04.697Z,70.60
2023-04-15T12:01:35.109Z,70.60
2023-04-15T12:04:12.817Z,70.80
2023-04-15T12:06:42.316Z,71.10
2023-04-15T12:09:13.262Z,71.00
2023-04-15T12:11:45.259Z,71.00
2023-04-15T12:14:21.221Z,70.90
2023-04-15T12:16:51.992Z,70.60
2023-04-15T12:19:27.401Z,70.60
2023-04-15T12:22:01.051Z,70.60
2023-04-15T12:24:33.443Z,70.50
2023-04-15T12:27:07.506Z,70.40
2023-04-15T12:29:38.314Z,70.30
2023-04-15T12:32:09.596Z,70.20
2023-04-15T12:34:41.478Z,70.40
2023-04-15T12:37:12.165Z,70.50
2023-04-15T12:39:42.705Z,70.30
2023-04-15T12:42:12.655Z,70.40
2023-04-15T12:44:42.264Z,70.30
2023-04-15T12:47:12.151Z,70.30
2023-04-15T12:49:42.908Z,70.50
2023-04-15T12:52:12.277Z,70.50
2023-04-15T12:54:41.454Z,70.60
2023-04-15T12:57:10.578Z,71.60
2023-04-15T12:59:39.731Z,70.70
2023-04-15T13:02:09.464Z,70.40
2023-04-15T13:04:38.511Z,70.50
2023-04-15T13:07:09.702Z,70.40
2023-04-15T13:09:39.622Z,70.40
2023-04-15T13:12:08.903Z,70.50
2023-04-15T13:14:38.167Z,70.40
2023-04-15T13:17:10.181Z,70.50
2023-04-15T13:19:40.617Z,70.40
2023-04-15T13:22:11.560Z,70.30
2023-04-15T13:24:40.964Z,70.50
2023-04-15T13:27:10.174Z,70.40
2023-04-15T13:29:40.307Z,70.30
2023-04-15T13:32:09.754Z,70.40
2023-04-15T13:34:38.708Z,70.50
2023-04-15T13:37:08.501Z,70.70
2023-04-15T13:39:38.931Z,70.90
2023-04-15T13:42:08.030Z,70.90
2023-04-15T13:44:37.082Z,70.70
2023-04-15T13:47:06.709Z,70.60
2023-04-15T13:49:35.987Z,70.60
2023-04-15T13:52:05.067Z,70.70
2023-04-15T13:54:37.070Z,70.70
2023-04-15T13:57:08.259Z,70.80
2023-04-15T13:59:37.730Z,70.80
2023-04-15T14:02:07.882Z,70.80
2023-04-15T14:04:37.258Z,70.90
2023-04-15T14:07:06.751Z,70.80
2023-04-15T14:09:36.630Z,70.80
2023-04-15T14:12:07.393Z,70.80
2023-04-15T14:14:36.727Z,70.70
2023-04-15T14:17:05.818Z,70.80
2023-04-15T14:19:36.166Z,70.80
2023-04-15T14:22:05.331Z,70.90
2023-04-15T14:24:34.622Z,70.90
2023-04-15T14:27:03.970Z,71.00
2023-04-15T14:29:34.855Z,71.00
2023-04-15T14:32:11.544Z,71.20
2023-04-15T14:34:42.223Z,71.10
2023-04-15T14:37:11.506Z,71.10
2023-04-15T14:39:40.771Z,71.10
2023-04-15T14:42:10.077Z,71.20
2023-04-15T14:44:40.771Z,71.20
2023-04-15T14:47:10.000Z,71.30
2023-04-15T14:49:39.401Z,71.30
2023-04-15T14:52:08.712Z,71.40
2023-04-15T14:54:38.084Z,71.40
2023-04-15T14:57:08.843Z,71.40
2023-04-15T14:59:38.063Z,71.50
2023-04-15T15:02:09.920Z,71.70
2023-04-15T15:04:40.682Z,71.70
2023-04-15T15:07:10.243Z,71.80
2023-04-15T15:09:39.342Z,72.00
2023-04-15T15:12:08.936Z,72.10
2023-04-15T15:14:38.223Z,72.20
2023-04-15T15:17:10.437Z,72.30
2023-04-15T15:19:40.335Z,72.50
2023-04-15T15:22:09.644Z,72.30
2023-04-15T15:24:38.846Z,72.40
2023-04-15T15:27:08.168Z,72.40
2023-04-15T15:29:37.310Z,72.50
2023-04-15T15:32:08.894Z,72.50
2023-04-15T15:34:38.280Z,72.60
2023-04-15T15:37:07.581Z,72.60
2023-04-15T15:39:37.212Z,72.70
2023-04-15T15:42:07.393Z,72.80
2023-04-15T15:44:38.524Z,72.80
2023-04-15T15:47:09.812Z,72.70
2023-04-15T15:49:39.092Z,72.80
2023-04-15T15:52:08.850Z,72.60
2023-04-15T15:54:38.134Z,72.60
2023-04-15T15:57:07.641Z,72.60
2023-04-15T15:59:41.022Z,72.60
2023-04-15T16:02:13.331Z,72.60
2023-04-15T16:04:43.320Z,72.60
2023-04-15T16:07:13.121Z,72.60
2023-04-15T16:09:42.598Z,72.60
2023-04-15T16:12:11.843Z,72.60
2023-04-15T16:14:43.089Z,72.60
2023-04-15T16:17:13.771Z,72.60
2023-04-15T16:19:42.936Z,72.80
2023-04-15T16:22:29.628Z,72.70
2023-04-15T16:24:59.832Z,72.70
2023-04-15T16:27:29.320Z,72.80
2023-04-15T16:29:58.519Z,72.90
2023-04-15T16:32:29.253Z,72.90
2023-04-15T16:34:58.567Z,73.00
2023-04-15T16:37:27.553Z,73.00
2023-04-15T16:39:57.123Z,73.20
2023-04-15T16:42:26.238Z,73.30
2023-04-15T16:44:56.170Z,73.40
2023-04-15T16:47:25.078Z,73.50
2023-04-15T16:49:55.582Z,73.60
2023-04-15T16:52:24.659Z,73.70
2023-04-15T16:54:54.290Z,73.70
2023-04-15T16:57:23.395Z,74.20
2023-04-15T16:59:54.925Z,74.00
2023-04-15T17:02:24.481Z,74.00
2023-04-15T17:04:54.992Z,73.90
2023-04-15T17:07:24.328Z,73.90
2023-04-15T17:09:54.906Z,73.90
2023-04-15T17:12:24.123Z,73.90
2023-04-15T17:14:53.434Z,74.00
2023-04-15T17:17:23.379Z,74.10
2023-04-15T17:19:52.949Z,74.20
2023-04-15T17:22:23.715Z,74.20
2023-04-15T17:24:53.313Z,74.40
2023-04-15T17:27:24.778Z,74.40
2023-04-15T17:29:54.526Z,74.50
2023-04-15T17:32:44.068Z,74.50
2023-04-15T17:35:33.555Z,74.60
2023-04-15T17:38:24.254Z,74.50
2023-04-15T17:41:13.794Z,74.60
2023-04-15T17:44:03.095Z,74.50
2023-04-15T17:46:52.929Z,74.50
2023-04-15T17:49:42.679Z,74.50
2023-04-15T17:52:31.691Z,74.50
2023-04-15T17:55:22.643Z,74.50
2023-04-15T17:58:12.016Z,74.70
2023-04-15T18:01:01.022Z,74.70
2023-04-15T18:03:50.464Z,74.70
2023-04-15T18:06:39.811Z,74.80
2023-04-15T18:09:29.077Z,74.80
2023-04-15T18:12:19.801Z,74.80
2023-04-15T18:15:10.609Z,74.80
2023-04-15T18:17:59.936Z,75.00
2023-04-15T18:20:30.154Z,74.90
2023-04-15T18:22:59.257Z,75.00
2023-04-15T18:25:29.912Z,74.90
2023-04-15T18:28:00.744Z,74.80
2023-04-15T18:30:29.909Z,74.90
2023-04-15T18:32:59.131Z,74.90
2023-04-15T18:35:29.862Z,74.80
2023-04-15T18:37:59.653Z,75.00
2023-04-15T18:40:28.789Z,75.00
2023-04-15T18:42:57.749Z,75.10
2023-04-15T18:45:28.078Z,75.10
2023-04-15T18:47:57.402Z,75.10
2023-04-15T18:50:26.540Z,75.10
2023-04-15T18:52:55.831Z,75.20
2023-04-15T18:55:25.394Z,75.10
2023-04-15T18:57:54.728Z,75.20
2023-04-15T19:00:27.368Z,75.20
2023-04-15T19:02:56.524Z,75.50
2023-04-15T19:05:25.846Z,75.20
2023-04-15T19:07:54.797Z,75.20
2023-04-15T19:10:24.292Z,75.40
2023-04-15T19:12:53.544Z,75.40
2023-04-15T19:15:22.764Z,75.50
2023-04-15T19:17:53.466Z,75.50
2023-04-15T19:20:22.752Z,75.40
2023-04-15T19:22:51.978Z,75.40
2023-04-15T19:25:21.324Z,75.40
2023-04-15T19:27:50.624Z,75.40
2023-04-15T19:30:21.306Z,75.30
2023-04-15T19:32:50.521Z,75.20
2023-04-15T19:35:21.406Z,75.20
2023-04-15T19:37:50.423Z,75.20
2023-04-15T19:40:19.377Z,75.30
2023-04-15T19:42:48.442Z,75.30
2023-04-15T19:45:17.783Z,75.30
2023-04-15T19:47:47.196Z,76.10
2023-04-15T19:50:17.029Z,75.40
2023-04-15T19:52:47.677Z,75.50
2023-04-15T19:55:17.325Z,75.50
2023-04-15T19:57:46.626Z,75.50
2023-04-15T20:00:16.283Z,75.50
2023-04-15T20:02:45.874Z,75.50
2023-04-15T20:05:15.153Z,75.50
2023-04-15T20:07:47.593Z,75.50
2023-04-15T20:10:18.595Z,75.50
2023-04-15T20:12:52.743Z,75.50
2023-04-15T20:15:23.948Z,75.70
2023-04-15T20:17:53.545Z,75.60
2023-04-15T20:20:23.100Z,75.70
2023-04-15T20:22:53.115Z,75.70
2023-04-15T20:25:23.971Z,75.80
2023-04-15T20:27:53.361Z,75.80
2023-04-15T20:30:22.761Z,75.80
2023-04-15T20:32:51.977Z,75.80
2023-04-15T20:35:21.277Z,75.90
2023-04-15T20:37:50.441Z,76.00
2023-04-15T20:40:20.164Z,76.00
2023-04-15T20:42:51.048Z,76.00
2023-04-15T20:45:20.216Z,75.90
2023-04-15T20:47:49.725Z,75.90
2023-04-15T20:50:19.211Z,75.90
2023-04-15T20:52:48.389Z,75.90
2023-04-15T20:55:17.720Z,76.00
2023-04-15T20:57:48.493Z,76.80
2023-04-15T21:00:19.232Z,76.00
2023-04-15T21:02:48.723Z,76.00
2023-04-15T21:05:18.317Z,76.00
2023-04-15T21:07:47.609Z,76.00
2023-04-15T21:10:17.688Z,76.00
2023-04-15T21:12:47.261Z,76.10
2023-04-15T21:15:17.938Z,76.10
2023-04-15T21:17:47.954Z,76.10
2023-04-15T21:20:17.378Z,76.00
2023-04-15T21:22:46.539Z,76.00
2023-04-15T21:25:15.707Z,76.00
2023-04-15T21:27:44.808Z,76.00
2023-04-15T21:30:14.527Z,76.00
2023-04-15T21:32:45.282Z,76.10
2023-04-15T21:35:14.692Z,76.10
2023-04-15T21:37:45.195Z,76.10
2023-04-15T21:40:16.088Z,76.10
2023-04-15T21:42:45.542Z,76.10
2023-04-15T21:45:14.917Z,76.20
2023-04-15T21:48:00.415Z,76.10
2023-04-15T21:50:36.594Z,76.10
2023-04-15T21:53:08.164Z,76.30
2023-04-15T21:55:37.217Z,76.10
2023-04-15T21:58:06.683Z,76.30
2023-04-15T22:00:35.758Z,76.30
2023-04-15T22:03:06.754Z,76.40
2023-04-15T22:05:36.020Z,76.40
2023-04-15T22:08:05.793Z,76.30
2023-04-15T22:10:38.980Z,76.40
2023-04-15T22:13:10.882Z,76.40
2023-04-15T22:15:40.722Z,76.40
2023-04-15T22:18:12.518Z,76.40
2023-04-15T22:20:41.737Z,76.50
2023-04-15T22:23:10.850Z,76.50
2023-04-15T22:25:39.869Z,76.60
2023-04-15T22:28:09.361Z,76.50
2023-04-15T22:30:39.174Z,76.50
2023-04-15T22:33:10.892Z,76.50
2023-04-15T22:35:40.267Z,76.50
2023-04-15T22:38:09.475Z,76.40
2023-04-15T22:40:38.470Z,76.50
2023-04-15T22:43:07.443Z,76.50
2023-04-15T22:45:36.451Z,76.50
2023-04-15T22:48:06.054Z,76.60
2023-04-15T22:50:38.238Z,76.50
2023-04-15T22:53:07.309Z,76.60
2023-04-15T22:55:36.594Z,76.60
2023-04-15T22:58:06.234Z,76.50
2023-04-15T23:00:35.379Z,76.50
2023-04-15T23:03:04.874Z,76.50
2023-04-15T23:05:39.922Z,76.50
2023-04-15T23:08:09.323Z,76.50
2023-04-15T23:10:39.894Z,76.50
2023-04-15T23:13:09.190Z,76.50
2023-04-15T23:15:38.305Z,76.50
2023-04-15T23:18:07.763Z,76.50
2023-04-15T23:20:38.324Z,76.50
2023-04-15T23:23:07.518Z,76.50
2023-04-15T23:25:36.906Z,76.50
2023-04-15T23:28:06.550Z,76.60
2023-04-15T23:30:35.911Z,76.60
2023-04-15T23:33:06.632Z,76.70
2023-04-15T23:35:36.031Z,76.60
2023-04-15T23:38:06.504Z,76.60
2023-04-15T23:40:35.538Z,76.70
2023-04-15T23:43:04.623Z,76.70
2023-04-15T23:45:33.771Z,76.70
2023-04-15T23:48:03.265Z,76.70
2023-04-15T23:50:32.553Z,76.70
2023-04-15T23:53:01.834Z,76.70
2023-04-15T23:55:32.583Z,76.70
2023-04-15T23:58:01.698Z,76.80
